Time;durP1;ratioP1;P1;durP2;ratioP2;P2;SDS_P1;SDS_P2;PMS_P1;PMS_P2;Temp;Humidity;BMP_temperature;BMP_pressure;BME280_temperature;BME280_humidity;BME280_pressure;Samples;Min_cycle;Max_cycle;Signal;HPM_P1;HPM_P2
2023/12/25 00:02:11;;;;;;;0.85;0.40;;;17.70;89.50;;;;;;5106768;27;45621;-53
2023/12/25 00:04:37;;;;;;;1.85;0.68;;;17.70;89.50;;;;;;5107749;27;45125;-53
2023/12/25 00:07:07;;;;;;;0.60;0.50;;;17.70;89.40;;;;;;5095915;27;45248;-53
2023/12/25 00:09:34;;;;;;;1.42;0.40;;;17.70;89.50;;;;;;5108196;27;47007;-53
2023/12/25 00:12:00;;;;;;;0.68;0.22;;;17.70;89.50;;;;;;5107625;27;45184;-53
2023/12/25 00:14:27;;;;;;;0.95;0.30;;;17.70;89.50;;;;;;5101683;27;45182;-53
2023/12/25 00:16:54;;;;;;;0.68;0.40;;;17.70;89.50;;;;;;5107473;27;45184;-53
2023/12/25 00:19:21;;;;;;;0.98;0.25;;;17.70;89.50;;;;;;5088261;27;46920;-53
2023/12/25 00:21:47;;;;;;;0.88;0.40;;;17.70;89.40;;;;;;5099942;27;45778;-53
2023/12/25 00:24:15;;;;;;;0.65;0.30;;;17.70;89.60;;;;;;5103978;27;45206;-53
2023/12/25 00:26:42;;;;;;;0.57;0.40;;;17.70;89.60;;;;;;5103566;27;45520;-53
2023/12/25 00:29:09;;;;;;;0.63;0.38;;;17.70;89.70;;;;;;5101439;27;45299;-53
2023/12/25 00:31:36;;;;;;;0.47;0.25;;;17.70;89.70;;;;;;5100574;27;45405;-53
2023/12/25 00:34:02;;;;;;;0.30;0.30;;;17.70;89.60;;;;;;5108109;27;45302;-53
2023/12/25 00:36:29;;;;;;;0.43;0.20;;;17.70;89.70;;;;;;5110635;27;45489;-53
2023/12/25 00:38:56;;;;;;;1.13;0.17;;;17.70;89.70;;;;;;5107159;27;45404;-53
2023/12/25 00:41:30;;;;;;;0.52;0.30;;;17.70;89.80;;;;;;5106084;27;45387;-53
2023/12/25 00:43:57;;;;;;;0.95;0.32;;;17.60;89.60;;;;;;5108236;27;45240;-53
2023/12/25 00:46:23;;;;;;;1.20;0.60;;;17.70;89.80;;;;;;5107498;27;45711;-52
2023/12/25 00:48:50;;;;;;;1.25;0.43;;;17.70;89.70;;;;;;5107517;27;46984;-52
2023/12/25 00:51:17;;;;;;;0.65;0.25;;;17.70;89.70;;;;;;5107640;27;45240;-52
2023/12/25 00:53:44;;;;;;;0.95;0.30;;;17.70;89.70;;;;;;5109595;27;45366;-52
2023/12/25 00:56:10;;;;;;;0.80;0.30;;;17.70;89.50;;;;;;5109003;27;45206;-52
2023/12/25 00:58:38;;;;;;;0.47;0.30;;;17.70;89.50;;;;;;5108111;27;48040;-53
2023/12/25 01:01:05;;;;;;;0.52;0.30;;;17.70;89.50;;;;;;5110531;27;45113;-52
2023/12/25 01:03:33;;;;;;;1.33;0.30;;;17.70;89.60;;;;;;5106109;27;45431;-52
2023/12/25 01:05:59;;;;;;;0.90;0.50;;;17.70;89.40;;;;;;5107416;27;45157;-53
2023/12/25 01:08:26;;;;;;;0.60;0.40;;;17.70;89.40;;;;;;5101293;27;45269;-53
2023/12/25 01:10:53;;;;;;;1.30;0.50;;;17.70;89.40;;;;;;5104893;27;45232;-53
2023/12/25 01:13:20;;;;;;;0.22;0.20;;;17.70;89.40;;;;;;5107867;27;44607;-53
2023/12/25 01:15:48;;;;;;;1.05;0.38;;;17.70;89.40;;;;;;5108850;27;45290;-53
2023/12/25 01:18:15;;;;;;;1.55;0.30;;;17.70;89.40;;;;;;5106240;27;45273;-53
2023/12/25 01:20:43;;;;;;;1.52;0.50;;;17.70;89.30;;;;;;5105510;27;45185;-53
2023/12/25 01:23:10;;;;;;;0.68;0.28;;;17.70;90.10;;;;;;5110584;27;45187;-52
2023/12/25 01:25:37;;;;;;;0.88;0.35;;;17.70;89.40;;;;;;5110409;27;45160;-52
2023/12/25 01:28:04;;;;;;;0.50;0.25;;;17.70;89.40;;;;;;5108852;27;47335;-53
2023/12/25 01:30:31;;;;;;;0.45;0.30;;;17.70;89.60;;;;;;5107248;27;45221;-53
2023/12/25 01:32:59;;;;;;;0.85;0.30;;;17.70;89.50;;;;;;5107489;27;45295;-53
2023/12/25 01:35:25;;;;;;;0.75;0.30;;;17.70;89.60;;;;;;5107884;27;45238;-53
2023/12/25 01:37:52;;;;;;;0.52;0.30;;;17.70;89.60;;;;;;5108727;27;46978;-53
2023/12/25 01:40:19;;;;;;;0.60;0.30;;;17.60;89.60;;;;;;5108963;27;45356;-53
2023/12/25 01:42:46;;;;;;;1.65;0.40;;;17.60;89.60;;;;;;5108331;27;45287;-53
2023/12/25 01:45:13;;;;;;;0.70;0.30;;;17.70;89.50;;;;;;5109277;27;45336;-53
2023/12/25 01:47:40;;;;;;;1.38;0.32;;;17.70;89.60;;;;;;5109203;27;48320;-52
2023/12/25 01:50:09;;;;;;;0.75;0.20;;;17.70;89.50;;;;;;5108144;27;45202;-53
2023/12/25 01:52:37;;;;;;;0.47;0.30;;;17.70;89.50;;;;;;5107501;27;45311;-53
2023/12/25 01:55:05;;;;;;;0.20;0.20;;;17.60;89.40;;;;;;5111311;27;45101;-52
2023/12/25 01:57:33;;;;;;;0.88;0.30;;;17.60;89.40;;;;;;5109097;27;48231;-52
2023/12/25 02:00:00;;;;;;;1.08;0.30;;;17.70;89.50;;;;;;5108675;27;45192;-53
2023/12/25 02:02:26;;;;;;;0.40;0.30;;;17.70;89.40;;;;;;5108665;27;45217;-52
2023/12/25 02:04:53;;;;;;;0.40;0.30;;;17.70;89.30;;;;;;5107558;27;45378;-52
2023/12/25 02:07:22;;;;;;;0.45;0.30;;;17.70;89.30;;;;;;5110396;27;45446;-53
2023/12/25 02:09:50;;;;;;;0.75;0.20;;;17.70;89.30;;;;;;5108315;27;45223;-53
2023/12/25 02:12:16;;;;;;;0.30;0.30;;;17.70;89.30;;;;;;5108987;27;45374;-53
2023/12/25 02:14:44;;;;;;;0.82;0.40;;;17.70;89.20;;;;;;5109742;27;45125;-53
2023/12/25 02:17:11;;;;;;;0.73;0.20;;;17.70;89.30;;;;;;5108034;27;46161;-53
2023/12/25 02:19:40;;;;;;;0.32;0.20;;;17.70;89.20;;;;;;5106690;27;45172;-53
2023/12/25 02:22:08;;;;;;;0.40;0.30;;;17.70;89.30;;;;;;5108300;27;45327;-53
2023/12/25 02:24:42;;;;;;;0.15;0.13;;;17.70;89.30;;;;;;5099320;27;45417;-53
2023/12/25 02:27:10;;;;;;;0.22;0.20;;;17.70;89.20;;;;;;5102138;27;45452;-53
2023/12/25 02:29:37;;;;;;;0.40;0.28;;;17.70;89.30;;;;;;5107217;27;46489;-53
2023/12/25 02:32:04;;;;;;;0.65;0.22;;;17.70;89.40;;;;;;5102518;27;45152;-52
2023/12/25 02:34:30;;;;;;;0.80;0.30;;;17.70;89.40;;;;;;5107464;27;45164;-53
2023/12/25 02:36:57;;;;;;;0.15;0.10;;;17.70;89.50;;;;;;5103907;27;48522;-53
2023/12/25 02:39:24;;;;;;;1.05;0.30;;;17.70;89.50;;;;;;5101323;27;45363;-53
2023/12/25 02:41:51;;;;;;;0.15;0.15;;;17.70;89.60;;;;;;5104690;27;45445;-53
2023/12/25 02:44:19;;;;;;;0.85;0.30;;;17.70;89.60;;;;;;5106558;27;45111;-53
2023/12/25 02:46:46;;;;;;;0.38;0.30;;;17.70;89.60;;;;;;5104344;27;45310;-53
2023/12/25 02:49:12;;;;;;;0.38;0.20;;;17.70;89.60;;;;;;5108554;27;45166;-53
2023/12/25 02:51:39;;;;;;;0.70;0.20;;;17.70;89.70;;;;;;5106356;27;45125;-53
2023/12/25 02:54:06;;;;;;;0.40;0.20;;;17.70;89.70;;;;;;5106676;27;45423;-53
2023/12/25 02:56:33;;;;;;;0.60;0.20;;;17.70;89.80;;;;;;5112707;27;46527;-53
2023/12/25 02:58:59;;;;;;;0.70;0.20;;;17.60;89.70;;;;;;5113270;27;44771;-53
2023/12/25 03:01:28;;;;;;;0.20;0.20;;;17.70;89.60;;;;;;5104605;27;45284;-53
2023/12/25 03:03:54;;;;;;;0.28;0.20;;;17.70;89.60;;;;;;5107881;27;45572;-52
2023/12/25 03:06:21;;;;;;;0.40;0.20;;;17.70;89.60;;;;;;5100622;27;45168;-53
2023/12/25 03:08:48;;;;;;;0.40;0.20;;;17.70;89.60;;;;;;5107180;27;45278;-52
2023/12/25 03:11:15;;;;;;;0.55;0.20;;;17.70;89.50;;;;;;5106498;27;45160;-53
2023/12/25 03:13:41;;;;;;;0.40;0.20;;;17.80;89.50;;;;;;5106717;27;45323;-53
2023/12/25 03:16:09;;;;;;;0.35;0.10;;;17.70;89.40;;;;;;5104381;27;46294;-53
2023/12/25 03:18:37;;;;;;;0.60;0.28;;;17.70;89.40;;;;;;5108714;27;45096;-53
2023/12/25 03:21:04;;;;;;;0.40;0.20;;;17.70;89.40;;;;;;5104999;27;45190;-53
2023/12/25 03:23:29;;;;;;;0.22;0.15;;;17.70;89.40;;;;;;5106352;27;45205;-53
2023/12/25 03:25:57;;;;;;;0.88;0.28;;;17.70;89.40;;;;;;5099599;27;46304;-53
2023/12/25 03:28:26;;;;;;;0.10;0.10;;;17.70;89.20;;;;;;5103731;27;45244;-53
2023/12/25 03:30:53;;;;;;;0.32;0.20;;;17.70;89.20;;;;;;5108005;27;45177;-53
2023/12/25 03:33:19;;;;;;;0.43;0.30;;;17.70;89.30;;;;;;5109403;27;45495;-53
2023/12/25 03:35:47;;;;;;;0.47;0.30;;;17.70;89.30;;;;;;5110076;27;45331;-54
2023/12/25 03:38:14;;;;;;;1.25;0.52;;;17.70;89.40;;;;;;5107553;27;45385;-52
2023/12/25 03:40:41;;;;;;;0.28;0.28;;;17.70;89.60;;;;;;5104547;27;44660;-52
2023/12/25 03:43:08;;;;;;;0.68;0.43;;;17.70;89.70;;;;;;5105372;27;45154;-53
2023/12/25 03:45:34;;;;;;;0.55;0.30;;;17.60;89.70;;;;;;5107053;27;47043;-53
2023/12/25 03:48:01;;;;;;;0.40;0.35;;;17.60;90.00;;;;;;5104570;27;45338;-53
2023/12/25 03:50:28;;;;;;;0.32;0.30;;;17.60;90.00;;;;;;5105253;27;45205;-53
2023/12/25 03:52:56;;;;;;;0.35;0.32;;;17.60;90.00;;;;;;5107682;27;45205;-53
2023/12/25 03:55:23;;;;;;;0.57;0.20;;;17.60;90.00;;;;;;5107586;27;45264;-53
2023/12/25 03:57:49;;;;;;;0.47;0.30;;;17.60;90.00;;;;;;5103267;27;45189;-53
2023/12/25 04:00:17;;;;;;;0.35;0.30;;;17.60;90.00;;;;;;5105270;27;44647;-53
2023/12/25 04:02:44;;;;;;;0.63;0.30;;;17.60;89.90;;;;;;5107227;27;45208;-53
2023/12/25 04:05:11;;;;;;;0.35;0.30;;;17.70;90.00;;;;;;5107027;27;46530;-53
2023/12/25 04:07:37;;;;;;;0.45;0.30;;;17.70;90.00;;;;;;5108771;27;45155;-53
2023/12/25 04:10:07;;;;;;;0.35;0.20;;;17.70;90.00;;;;;;5112052;27;45534;-53
2023/12/25 04:12:33;;;;;;;0.20;0.20;;;17.70;90.00;;;;;;5112145;27;44708;-53
2023/12/25 04:15:00;;;;;;;0.73;0.35;;;17.70;89.80;;;;;;5111361;27;46483;-52
2023/12/25 04:17:28;;;;;;;0.28;0.22;;;17.70;89.80;;;;;;5112240;27;45405;-53
2023/12/25 04:19:55;;;;;;;0.60;0.40;;;17.70;89.80;;;;;;5112255;27;45177;-53
2023/12/25 04:22:22;;;;;;;0.65;0.30;;;17.70;89.80;;;;;;5111041;27;45275;-53
2023/12/25 04:24:49;;;;;;;0.95;0.70;;;17.70;89.70;;;;;;5110869;27;46530;-52
2023/12/25 04:27:18;;;;;;;0.52;0.20;;;17.70;89.70;;;;;;5111362;27;45101;-52
2023/12/25 04:29:45;;;;;;;0.85;0.35;;;17.70;89.70;;;;;;5111944;27;45440;-53
2023/12/25 04:32:12;;;;;;;0.93;0.30;;;17.70;89.60;;;;;;5112008;27;45386;-53
2023/12/25 04:34:39;;;;;;;0.63;0.20;;;17.70;89.70;;;;;;5111877;27;46098;-53
2023/12/25 04:37:05;;;;;;;0.20;0.20;;;17.70;89.70;;;;;;5111482;27;45160;-53
2023/12/25 04:39:33;;;;;;;0.20;0.10;;;17.70;89.80;;;;;;5111517;27;45222;-53
2023/12/25 04:42:00;;;;;;;0.75;0.30;;;17.70;89.80;;;;;;5111464;27;45290;-52
2023/12/25 04:44:28;;;;;;;0.63;0.22;;;17.70;89.90;;;;;;5111051;27;45170;-53
2023/12/25 04:46:55;;;;;;;0.55;0.28;;;17.70;90.00;;;;;;5111093;27;46048;-53
2023/12/25 04:49:21;;;;;;;1.17;0.20;;;17.70;90.00;;;;;;5111988;27;45275;-53
2023/12/25 04:51:48;;;;;;;0.45;0.30;;;17.70;90.40;;;;;;5110579;27;45181;-53
2023/12/25 04:54:15;;;;;;;0.77;0.30;;;17.70;90.00;;;;;;5111851;27;46502;-53
2023/12/25 04:56:42;;;;;;;0.20;0.20;;;17.70;90.00;;;;;;5111325;27;45409;-53
2023/12/25 04:59:09;;;;;;;0.43;0.20;;;17.70;90.00;;;;;;5110239;27;46071;-53
2023/12/25 05:01:37;;;;;;;1.05;0.40;;;17.70;90.00;;;;;;5109841;27;45227;-53
2023/12/25 05:04:04;;;;;;;0.20;0.17;;;17.70;90.00;;;;;;5111300;27;45206;-53
2023/12/25 05:06:31;;;;;;;0.45;0.22;;;17.60;90.00;;;;;;5111047;27;45145;-53
2023/12/25 05:08:57;;;;;;;0.70;0.30;;;17.70;90.00;;;;;;5109433;27;45197;-53
2023/12/25 05:11:24;;;;;;;0.25;0.20;;;17.70;90.00;;;;;;5109618;27;44701;-53
2023/12/25 05:13:51;;;;;;;0.50;0.20;;;17.70;90.00;;;;;;5111464;27;46693;-53
2023/12/25 05:16:18;;;;;;;0.30;0.20;;;17.70;90.00;;;;;;5112040;27;45236;-53
2023/12/25 05:18:46;;;;;;;0.55;0.40;;;17.70;90.00;;;;;;5112136;27;45281;-53
2023/12/25 05:21:12;;;;;;;0.55;0.30;;;17.70;89.80;;;;;;5109835;27;46064;-53
2023/12/25 05:23:39;;;;;;;0.82;0.20;;;17.70;89.80;;;;;;5111105;27;46119;-53
2023/12/25 05:26:06;;;;;;;0.20;0.10;;;17.70;89.80;;;;;;5109371;27;45283;-53
2023/12/25 05:28:33;;;;;;;0.20;0.17;;;17.70;89.80;;;;;;5110909;27;45150;-53
2023/12/25 05:30:59;;;;;;;0.55;0.10;;;17.70;89.80;;;;;;5107427;27;45089;-53
2023/12/25 05:33:26;;;;;;;2.33;0.35;;;17.70;89.60;;;;;;5111861;27;45233;-53
2023/12/25 05:35:54;;;;;;;0.47;0.10;;;17.70;89.50;;;;;;5109991;27;45356;-53
2023/12/25 05:38:21;;;;;;;0.20;0.20;;;17.70;89.40;;;;;;5110960;27;45156;-53
2023/12/25 05:40:48;;;;;;;1.77;0.32;;;17.70;89.30;;;;;;5110273;27;45237;-53
2023/12/25 05:43:16;;;;;;;0.30;0.20;;;17.70;89.20;;;;;;5110054;27;45144;-53
2023/12/25 05:45:42;;;;;;;0.28;0.10;;;17.70;89.10;;;;;;5111218;27;45209;-53
2023/12/25 05:48:09;;;;;;;1.05;0.30;;;17.70;89.10;;;;;;5111313;27;45169;-53
2023/12/25 05:50:36;;;;;;;0.43;0.20;;;17.70;89.10;;;;;;5109865;27;44902;-53
2023/12/25 05:53:05;;;;;;;0.20;0.17;;;17.70;89.00;;;;;;5111152;27;45167;-53
2023/12/25 05:55:31;;;;;;;0.20;0.20;;;17.70;88.90;;;;;;5109800;27;45179;-53
2023/12/25 05:57:58;;;;;;;0.30;0.20;;;17.70;89.00;;;;;;5110258;27;45238;-53
2023/12/25 06:00:25;;;;;;;0.15;0.10;;;17.70;89.10;;;;;;5109703;27;45207;-53
2023/12/25 06:02:52;;;;;;;0.25;0.10;;;17.70;89.10;;;;;;5109183;27;45238;-53
2023/12/25 06:05:19;;;;;;;0.73;0.20;;;17.70;89.20;;;;;;5110050;27;45294;-53
2023/12/25 06:07:45;;;;;;;0.60;0.22;;;17.70;89.30;;;;;;5109979;27;45207;-54
2023/12/25 06:10:13;;;;;;;0.20;0.10;;;17.70;89.30;;;;;;5109352;27;45406;-54
2023/12/25 06:12:40;;;;;;;0.45;0.13;;;17.70;89.30;;;;;;5110439;27;45470;-53
2023/12/25 06:15:08;;;;;;;0.75;0.20;;;17.70;89.30;;;;;;5109805;27;45270;-53
2023/12/25 06:17:35;;;;;;;0.17;0.13;;;17.70;89.40;;;;;;5109952;27;45330;-53
2023/12/25 06:20:03;;;;;;;0.13;0.10;;;17.70;89.40;;;;;;5110285;27;45551;-53
2023/12/25 06:22:29;;;;;;;0.80;0.17;;;17.80;89.40;;;;;;5109401;27;47193;-53
2023/12/25 06:24:56;;;;;;;0.50;0.20;;;17.70;90.10;;;;;;5110843;27;45315;-53
2023/12/25 06:27:24;;;;;;;0.10;0.08;;;17.70;89.50;;;;;;5110223;27;45337;-53
2023/12/25 06:29:51;;;;;;;0.38;0.20;;;17.80;89.50;;;;;;5110901;27;44850;-53
2023/12/25 06:32:18;;;;;;;0.20;0.20;;;17.80;89.40;;;;;;5110243;27;45430;-53
2023/12/25 06:34:44;;;;;;;0.25;0.20;;;17.80;89.50;;;;;;5111263;27;45139;-53
2023/12/25 06:37:11;;;;;;;0.10;0.10;;;17.80;89.60;;;;;;5110356;27;45124;-53
2023/12/25 06:39:38;;;;;;;0.35;0.25;;;17.80;89.50;;;;;;5110246;27;45224;-53
2023/12/25 06:42:05;;;;;;;0.47;0.30;;;17.80;89.60;;;;;;5109349;27;46213;-53
2023/12/25 06:44:34;;;;;;;0.20;0.20;;;17.80;89.60;;;;;;5110182;27;45160;-53
2023/12/25 06:47:01;;;;;;;0.17;0.10;;;17.80;89.60;;;;;;5110921;27;45275;-53
2023/12/25 06:49:28;;;;;;;0.20;0.10;;;17.80;89.70;;;;;;5109749;27;45333;-53
2023/12/25 06:51:55;;;;;;;0.47;0.25;;;17.80;89.60;;;;;;5109842;27;45618;-53
2023/12/25 06:54:22;;;;;;;0.10;0.10;;;17.80;89.70;;;;;;5110085;27;45227;-53
2023/12/25 06:56:49;;;;;;;0.52;0.10;;;17.80;89.60;;;;;;5109715;27;45224;-53
2023/12/25 06:59:16;;;;;;;0.10;0.10;;;17.80;89.60;;;;;;5110301;27;44704;-53
2023/12/25 07:01:44;;;;;;;0.30;0.22;;;17.80;89.60;;;;;;5109027;27;47493;-53
2023/12/25 07:04:11;;;;;;;0.25;0.15;;;17.70;89.60;;;;;;5106843;27;45294;-53
2023/12/25 07:06:38;;;;;;;0.17;0.10;;;17.80;89.70;;;;;;5108105;27;45411;-53
2023/12/25 07:09:05;;;;;;;0.93;0.20;;;17.70;89.60;;;;;;5101248;27;45189;-53
2023/12/25 07:11:32;;;;;;;1.23;0.20;;;17.70;89.60;;;;;;5107235;27;45365;-53
2023/12/25 07:13:59;;;;;;;0.30;0.20;;;17.80;89.70;;;;;;5107048;27;45875;-53
2023/12/25 07:16:26;;;;;;;0.22;0.10;;;17.70;89.60;;;;;;5107166;27;45758;-53
2023/12/25 07:18:55;;;;;;;0.15;0.10;;;17.70;89.60;;;;;;5106025;27;45282;-53
2023/12/25 07:21:22;;;;;;;0.10;0.10;;;17.70;89.60;;;;;;5107109;27;46500;-53
2023/12/25 07:23:48;;;;;;;0.17;0.15;;;17.70;89.60;;;;;;5107692;27;45147;-53
2023/12/25 07:26:17;;;;;;;0.32;0.10;;;17.80;89.60;;;;;;5108197;27;45155;-53
2023/12/25 07:28:44;;;;;;;0.45;0.20;;;17.80;89.60;;;;;;5106938;27;45287;-53
2023/12/25 07:31:11;;;;;;;0.00;0.00;;;17.80;89.70;;;;;;5108013;27;48475;-53
2023/12/25 07:33:38;;;;;;;1.10;0.30;;;17.80;89.60;;;;;;5109167;27;45177;-53
2023/12/25 07:36:07;;;;;;;0.20;0.20;;;17.80;89.70;;;;;;5109494;27;45295;-53
2023/12/25 07:38:34;;;;;;;0.95;0.17;;;17.80;90.20;;;;;;5109798;27;45348;-53
2023/12/25 07:41:01;;;;;;;0.20;0.10;;;17.70;89.60;;;;;;5109524;27;45343;-53
2023/12/25 07:43:28;;;;;;;0.13;0.10;;;17.70;89.70;;;;;;5107865;27;46221;-53
2023/12/25 07:45:55;;;;;;;0.50;0.17;;;17.70;89.80;;;;;;5109418;27;45242;-53
2023/12/25 07:48:21;;;;;;;0.10;0.10;;;17.70;89.80;;;;;;5109692;27;45501;-53
2023/12/25 07:50:49;;;;;;;1.63;0.30;;;17.70;89.80;;;;;;5107334;27;47286;-53
2023/12/25 07:53:18;;;;;;;0.38;0.17;;;17.70;89.80;;;;;;5108592;27;45355;-53
2023/12/25 07:55:45;;;;;;;0.20;0.10;;;17.70;89.90;;;;;;5110039;27;45102;-53
2023/12/25 07:58:14;;;;;;;0.70;0.15;;;17.70;89.90;;;;;;5108987;27;45160;-53
2023/12/25 08:00:42;;;;;;;0.85;0.10;;;17.70;89.80;;;;;;5108119;27;45371;-53
2023/12/25 08:03:09;;;;;;;0.25;0.17;;;17.70;89.80;;;;;;5109322;27;45117;-53
2023/12/25 08:05:36;;;;;;;0.10;0.10;;;17.70;89.80;;;;;;5108996;27;45437;-53
2023/12/25 08:08:02;;;;;;;0.25;0.20;;;17.70;89.80;;;;;;5109256;27;45223;-53
2023/12/25 08:10:30;;;;;;;0.15;0.10;;;17.70;89.80;;;;;;5109321;27;46278;-53
2023/12/25 08:12:58;;;;;;;0.15;0.03;;;17.70;89.90;;;;;;5109479;27;45251;-53
2023/12/25 08:15:25;;;;;;;1.05;0.20;;;17.70;89.80;;;;;;5109542;27;45200;-53
2023/12/25 08:17:52;;;;;;;0.00;0.00;;;17.70;89.80;;;;;;5108543;27;45516;-53
2023/12/25 08:20:20;;;;;;;0.13;0.10;;;17.70;89.90;;;;;;5109049;27;45293;-53
2023/12/25 08:22:47;;;;;;;0.00;0.00;;;17.70;89.80;;;;;;5108907;27;45227;-53
2023/12/25 08:25:13;;;;;;;0.30;0.10;;;17.70;89.80;;;;;;5109744;27;45267;-53
2023/12/25 08:27:42;;;;;;;0.17;0.10;;;17.70;89.80;;;;;;5107771;27;45227;-53
2023/12/25 08:30:09;;;;;;;0.30;0.10;;;17.70;89.70;;;;;;5107026;27;45271;-53
2023/12/25 08:32:36;;;;;;;1.55;0.38;;;17.70;89.70;;;;;;5106522;27;44620;-53
2023/12/25 08:35:03;;;;;;;0.00;0.00;;;17.70;89.70;;;;;;5106960;27;45180;-53
2023/12/25 08:37:30;;;;;;;0.10;0.10;;;17.70;89.80;;;;;;5108776;27;45144;-53
2023/12/25 08:39:57;;;;;;;0.03;0.03;;;17.70;89.70;;;;;;5107066;27;46023;-53
2023/12/25 08:42:23;;;;;;;0.05;0.05;;;17.70;89.70;;;;;;5107590;27;45285;-53
2023/12/25 08:44:51;;;;;;;0.10;0.00;;;17.70;89.60;;;;;;5108496;27;45232;-53
2023/12/25 08:47:18;;;;;;;0.10;0.10;;;17.80;89.70;;;;;;5108658;27;45100;-52
2023/12/25 08:49:45;;;;;;;0.00;0.00;;;17.70;89.60;;;;;;5108567;27;47900;-53
2023/12/25 08:52:12;;;;;;;0.10;0.10;;;17.80;89.70;;;;;;5107989;27;44653;-52
2023/12/25 08:54:38;;;;;;;0.20;0.20;;;17.80;89.60;;;;;;5108670;27;45184;-53
2023/12/25 08:57:05;;;;;;;0.75;0.10;;;17.80;89.60;;;;;;5112489;27;44817;-53
2023/12/25 08:59:32;;;;;;;0.30;0.10;;;17.80;89.60;;;;;;5111859;27;47483;-53
2023/12/25 09:02:00;;;;;;;0.10;0.10;;;17.80;89.60;;;;;;5111016;27;45104;-53
2023/12/25 09:04:27;;;;;;;0.08;0.00;;;17.70;89.50;;;;;;5112477;27;45271;-53
2023/12/25 09:06:54;;;;;;;0.20;0.00;;;17.80;89.60;;;;;;5112446;27;44713;-53
2023/12/25 09:09:21;;;;;;;0.25;0.10;;;17.70;89.50;;;;;;5111906;27;45288;-53
2023/12/25 09:11:48;;;;;;;0.10;0.05;;;17.70;89.60;;;;;;5111889;27;45762;-53
2023/12/25 09:14:15;;;;;;;0.00;0.00;;;17.70;90.20;;;;;;5112679;27;44632;-53
2023/12/25 09:16:40;;;;;;;0.00;0.00;;;17.80;89.60;;;;;;5111859;27;45474;-53
2023/12/25 09:19:09;;;;;;;0.20;0.10;;;17.70;89.60;;;;;;5112188;27;46492;-53
2023/12/25 09:21:39;;;;;;;0.10;0.10;;;17.70;89.60;;;;;;5111491;27;44671;-53
2023/12/25 09:24:07;;;;;;;0.30;0.10;;;17.70;89.70;;;;;;5110549;27;45270;-53
2023/12/25 09:26:34;;;;;;;0.20;0.13;;;17.70;89.60;;;;;;5108373;27;45367;-53
2023/12/25 09:29:01;;;;;;;0.00;0.00;;;17.70;89.70;;;;;;5111221;27;47574;-52
2023/12/25 09:31:27;;;;;;;0.20;0.03;;;17.80;90.20;;;;;;5111098;27;45090;-52
2023/12/25 09:33:54;;;;;;;0.10;0.10;;;17.70;89.70;;;;;;5110388;27;45349;-52
2023/12/25 09:36:24;;;;;;;0.20;0.10;;;17.70;89.90;;;;;;5111158;27;45117;-52
2023/12/25 09:38:51;;;;;;;0.10;0.00;;;17.70;89.90;;;;;;5109230;27;46466;-52
2023/12/25 09:41:18;;;;;;;0.00;0.00;;;17.70;90.00;;;;;;5108263;27;45658;-53
2023/12/25 09:43:47;;;;;;;0.08;0.08;;;17.70;90.00;;;;;;5110688;27;45184;-52
2023/12/25 09:46:14;;;;;;;0.13;0.10;;;17.70;90.00;;;;;;5111495;27;45441;-52
2023/12/25 09:48:41;;;;;;;0.43;0.10;;;17.70;90.10;;;;;;5110403;27;46188;-53
2023/12/25 09:51:11;;;;;;;0.85;0.15;;;17.70;90.20;;;;;;5109537;27;45143;-52
2023/12/25 09:53:39;;;;;;;0.15;0.08;;;17.60;90.20;;;;;;5111138;27;45359;-52
2023/12/25 09:56:10;;;;;;;0.00;0.00;;;17.70;90.20;;;;;;5110452;27;45361;-52
2023/12/25 09:58:38;;;;;;;0.40;0.10;;;17.70;90.20;;;;;;5109330;27;45279;-53
2023/12/25 10:01:05;;;;;;;0.10;0.10;;;17.70;90.10;;;;;;5109847;27;45300;-53
2023/12/25 10:03:33;;;;;;;0.00;0.00;;;17.70;90.10;;;;;;5109961;27;45616;-53
2023/12/25 10:06:02;;;;;;;0.32;0.00;;;17.60;90.00;;;;;;5110669;27;45088;-53
2023/12/25 10:08:29;;;;;;;0.13;0.10;;;17.60;90.00;;;;;;5110793;27;46976;-52
2023/12/25 10:10:57;;;;;;;0.20;0.00;;;17.60;90.00;;;;;;5109970;27;45363;-53
2023/12/25 10:13:24;;;;;;;0.08;0.00;;;17.60;89.90;;;;;;5109842;27;45251;-53
2023/12/25 10:15:51;;;;;;;0.00;0.00;;;17.60;89.80;;;;;;5111259;27;45207;-53
2023/12/25 10:18:19;;;;;;;0.32;0.10;;;17.60;89.70;;;;;;5111060;27;46201;-53
2023/12/25 10:20:55;;;;;;;0.30;0.10;;;17.60;89.60;;;;;;5109057;27;45149;-53
2023/12/25 10:23:28;;;;;;;0.00;0.00;;;17.60;89.40;;;;;;5110683;27;45219;-53
2023/12/25 10:25:58;;;;;;;0.00;0.00;;;17.60;89.60;;;;;;5109219;27;44832;-53
2023/12/25 10:28:26;;;;;;;0.30;0.20;;;17.60;89.80;;;;;;5108103;27;46767;-53
2023/12/25 10:30:59;;;;;;;0.30;0.20;;;17.60;90.00;;;;;;5108525;27;45442;-53
2023/12/25 10:33:27;;;;;;;0.20;0.10;;;17.60;90.00;;;;;;5109196;27;45264;-53
2023/12/25 10:36:03;;;;;;;0.10;0.10;;;17.60;90.00;;;;;;5108618;27;45315;-53
2023/12/25 10:38:33;;;;;;;0.32;0.20;;;17.60;90.00;;;;;;5107833;27;48103;-52
2023/12/25 10:41:17;;;;;;;0.03;0.03;;;17.70;90.00;;;;;;5107208;27;45396;-52
2023/12/25 10:43:48;;;;;;;0.10;0.10;;;17.80;89.60;;;;;;5109419;27;44740;-53
2023/12/25 10:46:15;;;;;;;0.10;0.10;;;17.80;89.50;;;;;;5109923;27;45144;-53
2023/12/25 10:48:48;;;;;;;0.10;0.05;;;17.90;89.50;;;;;;5109489;27;47006;-53
2023/12/25 10:51:17;;;;;;;0.30;0.10;;;17.90;89.40;;;;;;5107264;27;45282;-53
2023/12/25 10:53:44;;;;;;;1.50;0.15;;;17.90;89.30;;;;;;5107392;27;45378;-53
2023/12/25 10:56:13;;;;;;;0.50;0.10;;;17.90;89.20;;;;;;5101372;27;45311;-52
2023/12/25 10:58:39;;;;;;;0.20;0.10;;;17.90;89.20;;;;;;5105328;27;45321;-52
2023/12/25 11:01:07;;;;;;;0.25;0.15;;;17.90;89.20;;;;;;5103366;27;45271;-52
2023/12/25 11:03:34;;;;;;;0.15;0.10;;;18.00;89.20;;;;;;5109022;27;45249;-52
2023/12/25 11:06:04;;;;;;;0.10;0.10;;;17.90;89.20;;;;;;5106042;27;45507;-52
2023/12/25 11:08:31;;;;;;;0.10;0.10;;;17.90;89.30;;;;;;5107859;27;46494;-52
2023/12/25 11:10:58;;;;;;;0.10;0.10;;;17.90;89.60;;;;;;5108864;27;45384;-53
2023/12/25 11:13:27;;;;;;;0.38;0.15;;;17.90;89.60;;;;;;5108071;27;45221;-53
2023/12/25 11:15:54;;;;;;;0.45;0.10;;;17.90;89.80;;;;;;5109031;27;45271;-53
2023/12/25 11:18:21;;;;;;;0.10;0.10;;;17.90;90.00;;;;;;5108439;27;47075;-53
2023/12/25 11:21:03;;;;;;;0.30;0.10;;;17.90;90.00;;;;;;5109674;27;45132;-53
2023/12/25 11:23:31;;;;;;;0.10;0.03;;;17.80;90.00;;;;;;5109659;27;45378;-53
2023/12/25 11:25:59;;;;;;;0.47;0.28;;;17.80;90.00;;;;;;5108585;27;45657;-53
2023/12/25 11:28:27;;;;;;;1.02;0.17;;;17.80;90.00;;;;;;5107002;27;46339;-53
2023/12/25 11:30:55;;;;;;;0.30;0.20;;;17.80;90.00;;;;;;5106720;27;45200;-53
2023/12/25 11:33:21;;;;;;;0.50;0.17;;;17.80;90.10;;;;;;5110429;27;45173;-53
2023/12/25 11:35:48;;;;;;;0.10;0.10;;;17.80;90.00;;;;;;5109436;27;45164;-53
2023/12/25 11:38:29;;;;;;;0.55;0.15;;;17.80;90.10;;;;;;5107169;27;46872;-53
2023/12/25 11:41:02;;;;;;;0.20;0.17;;;17.80;90.10;;;;;;5108199;27;45177;-53
2023/12/25 11:43:33;;;;;;;0.10;0.10;;;17.80;90.10;;;;;;5109016;27;45319;-53
2023/12/25 11:46:02;;;;;;;0.32;0.10;;;17.80;90.10;;;;;;5108437;27;45165;-53
2023/12/25 11:48:31;;;;;;;0.10;0.10;;;17.80;90.00;;;;;;5108784;27;47585;-53
2023/12/25 11:51:02;;;;;;;0.20;0.10;;;17.80;90.00;;;;;;5108067;27;45197;-53
2023/12/25 11:53:38;;;;;;;0.28;0.10;;;17.80;90.10;;;;;;5109774;27;45141;-53
2023/12/25 11:56:06;;;;;;;0.05;0.05;;;17.80;90.00;;;;;;5109574;27;45765;-53
2023/12/25 11:58:35;;;;;;;0.05;0.03;;;17.80;90.00;;;;;;5108362;27;46537;-53
2023/12/25 12:01:03;;;;;;;0.20;0.10;;;17.80;90.10;;;;;;5108854;27;45088;-53
2023/12/25 12:03:31;;;;;;;0.55;0.17;;;17.80;90.10;;;;;;5109935;27;45275;-53
2023/12/25 12:05:57;;;;;;;0.10;0.10;;;17.80;90.10;;;;;;5109690;27;45335;-53
2023/12/25 12:08:26;;;;;;;0.10;0.10;;;17.80;90.00;;;;;;5108398;27;45424;-53
2023/12/25 12:10:53;;;;;;;0.10;0.10;;;17.80;90.10;;;;;;5108050;27;45235;-53
2023/12/25 12:13:21;;;;;;;0.22;0.08;;;17.80;90.10;;;;;;5109277;27;45395;-53
2023/12/25 12:15:50;;;;;;;0.10;0.10;;;17.80;90.00;;;;;;5108841;27;45219;-53
2023/12/25 12:18:17;;;;;;;0.60;0.30;;;17.80;90.10;;;;;;5109432;27;45486;-53
2023/12/25 12:20:44;;;;;;;0.10;0.10;;;17.80;90.10;;;;;;5108575;27;45302;-53
2023/12/25 12:23:14;;;;;;;0.10;0.10;;;17.80;90.00;;;;;;5109858;27;45141;-53
2023/12/25 12:25:41;;;;;;;0.10;0.10;;;17.80;90.00;;;;;;5108824;27;45221;-53
2023/12/25 12:28:08;;;;;;;0.28;0.10;;;17.80;90.00;;;;;;5108722;27;46522;-53
2023/12/25 12:30:36;;;;;;;0.28;0.20;;;17.80;90.10;;;;;;5111162;27;45505;-53
2023/12/25 12:33:05;;;;;;;0.10;0.10;;;17.80;90.10;;;;;;5111543;27;45220;-53
2023/12/25 12:35:34;;;;;;;0.28;0.20;;;17.80;90.50;;;;;;5113805;27;45291;-53
2023/12/25 12:38:01;;;;;;;0.15;0.10;;;17.80;90.10;;;;;;5112368;27;46993;-53
2023/12/25 12:40:28;;;;;;;0.40;0.20;;;17.80;90.10;;;;;;5111445;27;45200;-53
2023/12/25 12:42:55;;;;;;;0.17;0.15;;;17.80;90.10;;;;;;5112866;27;45163;-52
2023/12/25 12:45:22;;;;;;;0.15;0.15;;;17.80;90.10;;;;;;5112557;27;45113;-53
2023/12/25 12:47:52;;;;;;;0.20;0.10;;;17.80;90.10;;;;;;5112467;27;45105;-53
2023/12/25 12:50:20;;;;;;;0.15;0.10;;;17.80;90.10;;;;;;5111477;27;45315;-53